createdAt,value
2022-11-20T00:01:54.362Z,19.92
2022-11-20T00:04:20.805Z,20.77
2022-11-20T00:06:47.826Z,20.52
2022-11-20T00:09:14.217Z,24.67
2022-11-20T00:11:40.695Z,24.47
2022-11-20T00:14:07.108Z,21.77
2022-11-20T00:16:34.064Z,20.58
2022-11-20T00:19:01.853Z,21.30
2022-11-20T00:21:30.452Z,22.30
2022-11-20T00:23:57.956Z,22.40
2022-11-20T00:26:26.821Z,21.35
2022-11-20T00:28:58.571Z,20.23
2022-11-20T00:31:25.542Z,21.90
2022-11-20T00:33:52.141Z,23.02
2022-11-20T00:36:20.644Z,19.20
2022-11-20T00:38:47.579Z,22.10
2022-11-20T00:41:16.763Z,21.05
2022-11-20T00:43:43.686Z,23.48
2022-11-20T00:46:12.760Z,21.42
2022-11-20T00:48:39.200Z,22.27
2022-11-20T00:51:05.861Z,23.20
2022-11-20T00:53:32.608Z,24.08
2022-11-20T00:56:01.367Z,22.63
2022-11-20T00:58:35.695Z,23.67
2022-11-20T01:01:10.567Z,23.60
2022-11-20T01:03:40.014Z,25.55
2022-11-20T01:06:10.870Z,22.55
2022-11-20T01:08:37.896Z,23.00
2022-11-20T01:11:10.431Z,22.83
2022-11-20T01:13:38.026Z,20.57
2022-11-20T01:16:17.860Z,23.10
2022-11-20T01:18:46.580Z,20.80
2022-11-20T01:21:21.520Z,20.50
2022-11-20T01:23:49.691Z,24.35
2022-11-20T01:26:21.230Z,22.40
2022-11-20T01:28:48.721Z,23.38
2022-11-20T01:31:16.789Z,22.02
2022-11-20T01:33:44.598Z,22.60
2022-11-20T01:36:12.135Z,22.52
2022-11-20T01:38:38.857Z,24.13
2022-11-20T01:41:06.460Z,23.20
2022-11-20T01:43:33.173Z,21.52
2022-11-20T01:46:03.583Z,24.20
2022-11-20T01:48:36.805Z,24.17
2022-11-20T01:51:04.910Z,24.30
2022-11-20T01:53:35.828Z,20.92
2022-11-20T01:56:06.574Z,24.40
2022-11-20T01:58:40.433Z,22.50
2022-11-20T02:01:06.975Z,21.45
2022-11-20T02:03:33.595Z,23.53
2022-11-20T02:06:15.913Z,23.98
2022-11-20T02:08:42.613Z,23.88
2022-11-20T02:11:09.348Z,24.05
2022-11-20T02:13:36.029Z,22.58
2022-11-20T02:16:04.121Z,22.20
2022-11-20T02:18:31.311Z,21.73
2022-11-20T02:21:06.643Z,22.10
2022-11-20T02:23:43.177Z,23.25
2022-11-20T02:26:14.166Z,23.13
2022-11-20T02:28:40.641Z,24.20
2022-11-20T02:31:07.215Z,22.08
2022-11-20T02:33:33.603Z,24.40
2022-11-20T02:36:00.032Z,24.38
2022-11-20T02:38:26.663Z,22.83
2022-11-20T02:40:55.697Z,22.60
2022-11-20T02:43:23.257Z,23.85
2022-11-20T02:45:49.626Z,25.15
2022-11-20T02:48:16.005Z,23.98
2022-11-20T02:50:42.463Z,24.23
2022-11-20T02:53:09.045Z,24.10
2022-11-20T02:55:36.098Z,24.30
2022-11-20T02:58:02.614Z,24.95
2022-11-20T03:00:29.139Z,24.52
2022-11-20T03:02:55.555Z,23.73
2022-11-20T03:05:21.955Z,23.90
2022-11-20T03:07:48.339Z,23.77
2022-11-20T03:10:14.933Z,22.70
2022-11-20T03:12:41.363Z,25.23
2022-11-20T03:15:08.281Z,23.77
2022-11-20T03:17:34.709Z,24.17
2022-11-20T03:20:01.095Z,25.10
2022-11-20T03:22:30.391Z,23.65
2022-11-20T03:24:56.844Z,23.23
2022-11-20T03:27:23.268Z,27.70
2022-11-20T03:29:49.660Z,26.43
2022-11-20T03:32:16.132Z,24.17
2022-11-20T03:34:42.547Z,27.20
2022-11-20T03:37:09.000Z,25.55
2022-11-20T03:39:35.401Z,24.88
2022-11-20T03:42:01.767Z,24.83
2022-11-20T03:44:28.189Z,24.98
2022-11-20T03:46:54.589Z,25.77
2022-11-20T03:49:21.231Z,21.23
2022-11-20T03:51:48.635Z,25.75
2022-11-20T03:54:15.142Z,25.60
2022-11-20T03:56:41.566Z,26.33
2022-11-20T03:59:11.086Z,24.77
2022-11-20T04:01:37.916Z,25.15
2022-11-20T04:04:04.772Z,27.02
2022-11-20T04:06:35.849Z,25.53
2022-11-20T04:09:02.493Z,25.02
2022-11-20T04:11:31.548Z,27.08
2022-11-20T04:14:00.347Z,24.52
2022-11-20T04:16:27.673Z,26.08
2022-11-20T04:18:55.833Z,24.63
2022-11-20T04:21:23.047Z,26.27
2022-11-20T04:23:50.270Z,28.33
2022-11-20T04:26:16.686Z,28.23
2022-11-20T04:28:43.236Z,27.38
2022-11-20T04:31:13.065Z,27.60
2022-11-20T04:33:39.960Z,26.70
2022-11-20T04:36:11.132Z,27.92
2022-11-20T04:38:37.606Z,27.90
2022-11-20T04:41:06.966Z,27.27
2022-11-20T04:43:34.371Z,28.90
2022-11-20T04:46:01.848Z,29.60
2022-11-20T04:48:30.464Z,29.10
2022-11-20T04:50:57.140Z,27.08
2022-11-20T04:53:24.509Z,27.45
2022-11-20T04:55:50.939Z,28.33
2022-11-20T04:58:17.455Z,27.63
2022-11-20T05:00:43.875Z,27.05
2022-11-20T05:03:10.279Z,28.42
2022-11-20T05:05:36.685Z,29.48
2022-11-20T05:08:03.231Z,30.50
2022-11-20T05:10:29.608Z,29.98
2022-11-20T05:12:56.003Z,30.00
2022-11-20T05:15:22.430Z,31.92
2022-11-20T05:17:53.296Z,29.23
2022-11-20T05:20:20.522Z,29.00
2022-11-20T05:22:46.948Z,27.77
2022-11-20T05:25:13.623Z,31.63
2022-11-20T05:27:40.073Z,29.02
2022-11-20T05:30:07.692Z,31.50
2022-11-20T05:32:34.198Z,28.47
2022-11-20T05:35:00.625Z,29.85
2022-11-20T05:37:27.031Z,29.02
2022-11-20T05:39:53.474Z,28.75
2022-11-20T05:42:19.847Z,29.13
2022-11-20T05:44:46.344Z,32.17
2022-11-20T05:47:12.723Z,32.08
2022-11-20T05:49:39.159Z,29.35
2022-11-20T05:52:05.572Z,31.45
2022-11-20T05:54:32.156Z,28.80
2022-11-20T05:56:58.568Z,29.53
2022-11-20T05:59:25.010Z,31.77
2022-11-20T06:01:51.427Z,29.77
2022-11-20T06:04:17.835Z,28.45
2022-11-20T06:06:44.296Z,28.67
2022-11-20T06:09:10.743Z,31.70
2022-11-20T06:11:37.167Z,32.00
2022-11-20T06:14:03.591Z,31.98
2022-11-20T06:16:30.043Z,32.95
2022-11-20T06:18:56.532Z,32.35
2022-11-20T06:21:23.740Z,34.30
2022-11-20T06:23:51.471Z,31.25
2022-11-20T06:26:20.795Z,30.95
2022-11-20T06:28:47.286Z,31.90
2022-11-20T06:31:16.227Z,32.25
2022-11-20T06:33:44.054Z,32.93
2022-11-20T06:36:12.668Z,35.15
2022-11-20T06:38:39.736Z,35.90
2022-11-20T06:41:07.258Z,32.22
2022-11-20T06:43:33.807Z,30.92
2022-11-20T06:46:00.712Z,32.00
2022-11-20T06:48:28.288Z,37.38
2022-11-20T06:50:54.774Z,37.10
2022-11-20T06:53:22.246Z,35.15
2022-11-20T06:55:49.447Z,36.60
2022-11-20T06:58:17.530Z,37.93
2022-11-20T07:00:44.233Z,39.55
2022-11-20T07:03:12.791Z,36.95
2022-11-20T07:05:39.919Z,36.13
2022-11-20T07:08:06.749Z,31.65
2022-11-20T07:10:34.143Z,36.10
2022-11-20T07:13:00.765Z,33.28
2022-11-20T07:15:27.508Z,34.65
2022-11-20T07:17:53.968Z,35.78
2022-11-20T07:20:20.524Z,36.45
2022-11-20T07:22:47.015Z,38.83
2022-11-20T07:25:13.461Z,35.45
2022-11-20T07:27:39.870Z,36.00
2022-11-20T07:30:06.893Z,36.35
2022-11-20T07:32:33.337Z,39.13
2022-11-20T07:34:59.733Z,38.30
2022-11-20T07:37:26.112Z,36.88
2022-11-20T07:39:52.537Z,37.47
2022-11-20T07:42:19.019Z,37.35
2022-11-20T07:44:45.503Z,40.33
2022-11-20T07:47:11.952Z,38.53
2022-11-20T07:49:38.394Z,36.72
2022-11-20T07:52:05.515Z,46.42
2022-11-20T07:54:31.991Z,39.17
2022-11-20T07:56:58.393Z,40.40
2022-11-20T07:59:24.823Z,40.97
2022-11-20T08:01:51.241Z,39.50
2022-11-20T08:04:17.744Z,38.83
2022-11-20T08:06:44.181Z,44.20
2022-11-20T08:09:10.697Z,40.83
2022-11-20T08:11:37.130Z,41.23
2022-11-20T08:14:04.034Z,40.33
2022-11-20T08:16:30.791Z,40.75
2022-11-20T08:18:57.275Z,41.45
2022-11-20T08:21:23.697Z,40.63
2022-11-20T08:23:50.172Z,39.83
2022-11-20T08:26:16.642Z,40.95
2022-11-20T08:28:43.097Z,45.15
2022-11-20T08:31:09.657Z,46.42
2022-11-20T08:33:36.427Z,43.00
2022-11-20T08:36:04.373Z,42.43
2022-11-20T08:38:31.776Z,41.28
2022-11-20T08:41:02.545Z,40.83
2022-11-20T08:43:28.938Z,43.38
2022-11-20T08:45:57.885Z,47.63
2022-11-20T08:48:24.355Z,45.50
2022-11-20T08:50:50.769Z,49.97
2022-11-20T08:53:17.211Z,50.22
2022-11-20T08:55:43.772Z,51.67
2022-11-20T08:58:10.240Z,51.17
2022-11-20T09:00:36.668Z,55.77
2022-11-20T09:03:03.160Z,51.53
2022-11-20T09:05:29.757Z,53.63
2022-11-20T09:08:00.422Z,56.10
2022-11-20T09:10:27.657Z,52.45
2022-11-20T09:12:54.756Z,58.53
2022-11-20T09:15:21.605Z,66.53
2022-11-20T09:17:55.394Z,60.28
2022-11-20T09:20:22.531Z,58.97
2022-11-20T09:22:49.397Z,61.90
2022-11-20T09:25:15.910Z,52.97
2022-11-20T09:27:42.354Z,52.42
2022-11-20T09:30:09.219Z,59.95
2022-11-20T09:32:35.633Z,51.85
2022-11-20T09:35:02.449Z,51.97
2022-11-20T09:37:29.418Z,63.57
2022-11-20T09:39:55.828Z,59.42
2022-11-20T09:42:31.261Z,55.30
2022-11-20T09:45:31.434Z,69.68
2022-11-20T09:48:25.970Z,68.10
2022-11-20T09:51:25.712Z,57.23
2022-11-20T09:54:08.604Z,65.75
2022-11-20T09:56:40.429Z,60.10
2022-11-20T09:59:15.304Z,67.15
2022-11-20T10:01:41.723Z,55.05
2022-11-20T10:04:18.930Z,60.07
2022-11-20T10:07:10.583Z,55.00
2022-11-20T10:09:44.579Z,56.92
2022-11-20T10:12:24.695Z,54.65
2022-11-20T10:14:59.836Z,56.10
2022-11-20T10:18:08.619Z,55.80
2022-11-20T10:20:49.628Z,56.22
2022-11-20T10:23:34.027Z,57.38
2022-11-20T10:26:13.612Z,60.45
2022-11-20T10:28:40.043Z,56.58
2022-11-20T10:31:15.406Z,58.77
2022-11-20T10:34:10.572Z,55.65
2022-11-20T10:36:44.743Z,62.72
2022-11-20T10:39:57.022Z,59.10
2022-11-20T10:42:32.946Z,65.13
2022-11-20T10:45:12.315Z,61.57
2022-11-20T10:47:38.768Z,63.50
2022-11-20T10:50:10.945Z,64.38
2022-11-20T10:52:43.382Z,61.38
2022-11-20T10:55:43.461Z,64.43
2022-11-20T10:58:29.508Z,65.87
2022-11-20T11:01:16.860Z,65.25
2022-11-20T11:03:43.654Z,65.60
2022-11-20T11:06:22.355Z,72.38
2022-11-20T11:08:51.320Z,73.80
2022-11-20T11:11:29.730Z,77.23
2022-11-20T11:14:16.594Z,73.55
2022-11-20T11:16:57.536Z,73.40
2022-11-20T11:19:25.011Z,72.95
2022-11-20T11:21:55.771Z,70.60
2022-11-20T11:24:41.117Z,72.90
2022-11-20T11:27:17.136Z,69.53
2022-11-20T11:29:44.410Z,72.47
2022-11-20T11:32:23.608Z,73.40
2022-11-20T11:35:05.652Z,71.03
2022-11-20T11:37:37.340Z,73.43
2022-11-20T11:40:27.311Z,67.70
2022-11-20T11:42:59.930Z,73.57
2022-11-20T11:45:27.252Z,74.38
2022-11-20T11:47:56.751Z,80.07
2022-11-20T11:50:25.929Z,77.17
2022-11-20T11:53:10.074Z,77.38
2022-11-20T11:55:41.565Z,74.28
2022-11-20T11:58:08.104Z,72.07
2022-11-20T12:00:38.574Z,72.32
2022-11-20T12:03:16.036Z,72.87
2022-11-20T12:05:58.649Z,71.50
2022-11-20T12:08:54.885Z,78.85
2022-11-20T12:11:32.222Z,81.82
2022-11-20T12:14:27.242Z,76.80
2022-11-20T12:16:54.440Z,75.50
2022-11-20T12:19:21.423Z,79.00
2022-11-20T12:22:02.000Z,75.53
2022-11-20T12:25:01.744Z,80.32
2022-11-20T12:27:37.328Z,79.50
2022-11-20T12:30:13.714Z,80.70
2022-11-20T12:33:04.269Z,80.80
2022-11-20T12:35:37.050Z,79.65
2022-11-20T12:38:03.446Z,85.45
2022-11-20T12:40:41.418Z,76.93
2022-11-20T12:43:19.813Z,80.30
2022-11-20T12:46:09.429Z,74.95
2022-11-20T12:49:00.564Z,80.40
2022-11-20T12:52:02.045Z,83.75
2022-11-20T12:54:42.285Z,73.07
2022-11-20T12:57:17.758Z,86.37
2022-11-20T12:59:52.882Z,83.38
2022-11-20T13:02:47.560Z,81.93
2022-11-20T13:05:33.868Z,89.80
2022-11-20T13:08:03.015Z,88.18
2022-11-20T13:10:47.149Z,78.80
2022-11-20T13:13:24.577Z,78.47
2022-11-20T13:16:11.618Z,78.03
2022-11-20T13:18:42.461Z,91.80
2022-11-20T13:21:38.429Z,102.10
2022-11-20T13:24:06.594Z,84.93
2022-11-20T13:26:33.150Z,103.55
2022-11-20T13:29:29.270Z,95.18
2022-11-20T13:32:07.783Z,100.85
2022-11-20T13:34:36.464Z,102.75
2022-11-20T13:37:03.097Z,105.77
2022-11-20T13:39:32.302Z,113.22
2022-11-20T13:42:12.536Z,114.22
2022-11-20T13:44:43.591Z,126.75
2022-11-20T13:47:29.849Z,121.88
2022-11-20T13:49:59.130Z,133.93
2022-11-20T13:52:50.363Z,118.45
2022-11-20T13:55:24.779Z,132.40
2022-11-20T13:58:08.096Z,116.93
2022-11-20T14:00:34.762Z,127.55
2022-11-20T14:03:07.400Z,133.50
2022-11-20T14:05:47.005Z,126.78
2022-11-20T14:08:24.710Z,135.77
2022-11-20T14:10:51.124Z,127.85
2022-11-20T14:13:21.676Z,133.07
2022-11-20T14:15:48.111Z,128.67
2022-11-20T14:18:20.468Z,136.57
2022-11-20T14:20:47.644Z,143.35
2022-11-20T14:23:29.962Z,137.05
2022-11-20T14:25:57.385Z,136.95
2022-11-20T14:28:31.763Z,138.90
2022-11-20T14:30:58.700Z,137.88
2022-11-20T14:33:27.440Z,157.18
2022-11-20T14:35:56.738Z,138.73
2022-11-20T14:38:29.718Z,157.10
2022-11-20T14:41:07.341Z,148.90
2022-11-20T14:43:33.777Z,125.03
2022-11-20T14:46:05.911Z,125.75
2022-11-20T14:48:57.874Z,121.05
2022-11-20T14:51:40.967Z,107.78
2022-11-20T14:54:10.446Z,101.17
2022-11-20T14:56:36.860Z,86.88
2022-11-20T14:59:03.362Z,92.75
2022-11-20T15:01:31.540Z,99.03
2022-11-20T15:04:12.007Z,86.32
2022-11-20T15:06:49.595Z,91.53
2022-11-20T15:09:16.301Z,79.18
2022-11-20T15:11:55.527Z,70.57
2022-11-20T15:14:22.708Z,72.95
2022-11-20T15:16:49.552Z,56.92
2022-11-20T15:19:24.843Z,60.80
2022-11-20T15:21:51.865Z,59.50
2022-11-20T15:24:18.685Z,52.45
2022-11-20T15:26:45.835Z,53.30
2022-11-20T15:29:14.252Z,45.10
2022-11-20T15:31:41.026Z,43.67
2022-11-20T15:34:13.701Z,42.63
2022-11-20T15:36:41.162Z,37.63
2022-11-20T15:39:08.310Z,43.67
2022-11-20T15:41:38.049Z,32.75
2022-11-20T15:44:05.523Z,39.97
2022-11-20T15:46:37.005Z,37.88
2022-11-20T15:49:03.462Z,30.88
2022-11-20T15:51:39.664Z,33.97
2022-11-20T15:54:18.233Z,36.28
2022-11-20T15:56:44.782Z,38.13
2022-11-20T15:59:11.256Z,45.67
2022-11-20T16:01:37.733Z,38.88
2022-11-20T16:04:06.352Z,43.08
2022-11-20T16:06:32.758Z,40.42
2022-11-20T16:08:59.189Z,43.40
2022-11-20T16:11:25.637Z,46.88
2022-11-20T16:13:52.077Z,48.78
2022-11-20T16:16:29.352Z,48.38
2022-11-20T16:18:55.814Z,47.33
2022-11-20T16:21:22.283Z,46.00
2022-11-20T16:23:48.747Z,37.13
2022-11-20T16:26:17.442Z,35.13
2022-11-20T16:28:44.582Z,34.88
2022-11-20T16:31:17.069Z,23.75
2022-11-20T16:33:43.619Z,22.90
2022-11-20T16:36:12.238Z,18.60
2022-11-20T16:38:38.697Z,17.42
2022-11-20T16:41:06.019Z,13.00
2022-11-20T16:43:32.810Z,17.67
2022-11-20T16:45:59.321Z,15.57
2022-11-20T16:48:25.842Z,19.70
2022-11-20T16:50:53.889Z,17.25
2022-11-20T16:53:22.114Z,19.52
2022-11-20T16:55:48.926Z,18.67
2022-11-20T16:58:15.696Z,14.57
2022-11-20T17:00:46.905Z,14.13
2022-11-20T17:03:16.746Z,14.27
2022-11-20T17:05:43.229Z,17.42
2022-11-20T17:08:09.702Z,16.80
2022-11-20T17:10:36.154Z,16.63
2022-11-20T17:13:02.588Z,22.48
2022-11-20T17:15:29.124Z,22.85
2022-11-20T17:17:55.555Z,26.80
2022-11-20T17:20:22.037Z,18.70
2022-11-20T17:22:48.493Z,32.70
2022-11-20T17:25:14.970Z,29.40
2022-11-20T17:27:41.401Z,26.65
2022-11-20T17:30:08.441Z,28.38
2022-11-20T17:32:34.869Z,23.85
2022-11-20T17:35:01.314Z,23.67
2022-11-20T17:37:27.760Z,22.73
2022-11-20T17:39:54.186Z,26.88
2022-11-20T17:42:20.649Z,27.95
2022-11-20T17:44:47.067Z,24.35
2022-11-20T17:47:13.462Z,25.93
2022-11-20T17:49:39.923Z,29.98
2022-11-20T17:52:06.306Z,28.55
2022-11-20T17:54:32.702Z,31.63
2022-11-20T17:56:59.141Z,25.73
2022-11-20T17:59:25.983Z,28.57
2022-11-20T18:01:52.537Z,29.10
2022-11-20T18:04:19.012Z,29.45
2022-11-20T18:06:45.467Z,33.00
2022-11-20T18:09:13.198Z,29.48
2022-11-20T18:11:41.584Z,32.83
2022-11-20T18:14:13.544Z,141.35
2022-11-20T18:16:42.662Z,62.00
2022-11-20T18:19:14.315Z,40.97
2022-11-20T18:21:40.816Z,35.55
2022-11-20T18:24:08.085Z,34.20
2022-11-20T18:26:36.792Z,33.55
2022-11-20T18:29:07.572Z,124.88
2022-11-20T18:31:34.294Z,38.47
2022-11-20T18:34:00.708Z,42.85
2022-11-20T18:36:29.911Z,41.27
2022-11-20T18:38:58.887Z,37.85
2022-11-20T18:41:30.650Z,38.50
2022-11-20T18:43:57.713Z,33.67
2022-11-20T18:46:24.145Z,28.35
2022-11-20T18:48:50.551Z,35.43
2022-11-20T18:51:16.995Z,28.98
2022-11-20T18:53:47.309Z,55.28
2022-11-20T18:56:14.195Z,29.23
2022-11-20T18:58:41.222Z,28.92
2022-11-20T19:01:08.200Z,27.70
2022-11-20T19:03:34.797Z,31.83
2022-11-20T19:06:01.297Z,35.78
2022-11-20T19:08:27.797Z,31.77
2022-11-20T19:10:54.269Z,25.25
2022-11-20T19:13:20.742Z,28.40
2022-11-20T19:15:47.642Z,33.58
2022-11-20T19:18:14.141Z,20.45
2022-11-20T19:20:40.655Z,26.50
2022-11-20T19:23:07.131Z,20.75
2022-11-20T19:25:37.923Z,18.20
2022-11-20T19:28:05.084Z,24.73
2022-11-20T19:30:32.678Z,18.30
2022-11-20T19:32:59.102Z,19.33
2022-11-20T19:35:25.545Z,12.95
2022-11-20T19:37:51.979Z,14.83
2022-11-20T19:40:18.450Z,18.92
2022-11-20T19:42:44.901Z,20.65
2022-11-20T19:45:11.301Z,16.33
2022-11-20T19:48:07.237Z,33.45
2022-11-20T19:50:24.226Z,39.60
2022-11-20T19:52:54.452Z,23.95
2022-11-20T19:55:24.893Z,20.35
2022-11-20T19:57:51.544Z,28.38
2022-11-20T20:00:25.607Z,20.80
2022-11-20T20:02:57.481Z,21.07
2022-11-20T20:05:23.965Z,20.73
2022-11-20T20:07:50.452Z,23.13
2022-11-20T20:10:16.986Z,16.73
2022-11-20T20:12:43.600Z,16.05
2022-11-20T20:15:10.082Z,17.97
2022-11-20T20:17:36.670Z,17.67
2022-11-20T20:20:03.538Z,17.63
2022-11-20T20:22:29.964Z,21.75
2022-11-20T20:24:56.374Z,15.65
2022-11-20T20:27:22.846Z,17.00
2022-11-20T20:29:49.286Z,15.98
2022-11-20T20:32:15.680Z,19.70
2022-11-20T20:34:42.108Z,16.25
2022-11-20T20:37:08.562Z,17.42
2022-11-20T20:39:34.987Z,16.87
2022-11-20T20:42:01.394Z,16.35
2022-11-20T20:44:27.774Z,13.75
2022-11-20T20:46:54.170Z,12.65
2022-11-20T20:49:20.580Z,11.75
2022-11-20T20:51:47.004Z,19.90
2022-11-20T20:54:13.419Z,16.38
2022-11-20T20:56:39.909Z,20.15
2022-11-20T20:59:06.382Z,15.00
2022-11-20T21:01:32.848Z,14.05
2022-11-20T21:03:59.261Z,14.57
2022-11-20T21:06:26.073Z,15.43
2022-11-20T21:08:53.009Z,15.45
2022-11-20T21:11:20.632Z,17.38
2022-11-20T21:13:48.149Z,19.00
2022-11-20T21:16:16.174Z,11.53
2022-11-20T21:18:42.614Z,14.07
2022-11-20T21:21:13.185Z,15.05
2022-11-20T21:23:39.759Z,17.15
2022-11-20T21:26:08.569Z,13.52
2022-11-20T21:28:36.378Z,15.97
2022-11-20T21:31:04.141Z,16.35
2022-11-20T21:34:01.591Z,15.90
2022-11-20T21:36:30.142Z,14.60
2022-11-20T21:38:58.213Z,16.77
2022-11-20T21:41:27.025Z,15.20
2022-11-20T21:44:29.067Z,13.43
2022-11-20T21:46:43.314Z,15.30
2022-11-20T21:49:10.504Z,12.73
2022-11-20T21:51:37.337Z,14.68
2022-11-20T21:54:03.862Z,16.77
2022-11-20T21:56:30.262Z,12.85
2022-11-20T21:58:56.704Z,12.25
2022-11-20T22:01:26.113Z,13.43
2022-11-20T22:03:55.089Z,14.18
2022-11-20T22:06:21.539Z,16.87
2022-11-20T22:08:48.409Z,15.90
2022-11-20T22:11:17.496Z,16.48
2022-11-20T22:13:44.270Z,14.10
2022-11-20T22:16:11.112Z,14.27
2022-11-20T22:18:42.792Z,14.90
2022-11-20T22:21:09.238Z,14.68
2022-11-20T22:23:36.302Z,14.23
2022-11-20T22:26:14.690Z,12.50
2022-11-20T22:28:41.653Z,14.45
2022-11-20T22:31:10.753Z,15.07
2022-11-20T22:33:39.131Z,15.57
2022-11-20T22:36:08.289Z,18.38
2022-11-20T22:38:39.273Z,16.73
2022-11-20T22:41:11.883Z,16.08
2022-11-20T22:43:39.297Z,16.10
2022-11-20T22:46:13.009Z,19.10
2022-11-20T22:48:48.669Z,14.95
2022-11-20T22:51:16.558Z,19.13
2022-11-20T22:53:43.902Z,18.80
2022-11-20T22:56:12.516Z,15.77
2022-11-20T22:58:40.722Z,16.08
2022-11-20T23:01:15.324Z,17.85
2022-11-20T23:03:43.956Z,15.30
2022-11-20T23:06:11.343Z,12.75
2022-11-20T23:08:39.556Z,16.67
2022-11-20T23:11:09.552Z,17.52
2022-11-20T23:13:36.922Z,16.17
2022-11-20T23:16:06.521Z,12.77
2022-11-20T23:18:33.889Z,15.88
2022-11-20T23:21:08.232Z,13.73
2022-11-20T23:23:34.665Z,11.88
2022-11-20T23:26:09.382Z,9.50
2022-11-20T23:28:35.935Z,14.50
2022-11-20T23:31:02.837Z,14.80
2022-11-20T23:33:29.365Z,10.80
2022-11-20T23:35:55.815Z,16.55
2022-11-20T23:38:22.818Z,14.52
2022-11-20T23:40:50.773Z,12.95
2022-11-20T23:43:19.164Z,14.75
2022-11-20T23:45:50.998Z,18.80
2022-11-20T23:48:18.594Z,10.93
2022-11-20T23:50:45.885Z,15.43
2022-11-20T23:53:13.246Z,12.15
2022-11-20T23:55:43.715Z,10.95
2022-11-20T23:58:10.369Z,16.27
